Time;durP1;ratioP1;P1;durP2;ratioP2;P2;SDS_P1;SDS_P2;PMS_P1;PMS_P2;Temp;Humidity;BMP_temperature;BMP_pressure;BME280_temperature;BME280_humidity;BME280_pressure;Samples;Min_cycle;Max_cycle;Signal;HPM_P1;HPM_P2
2022/03/15 00:00:22;;;;;;;13.23;5.80;;;3.90;99.90;;;;;;5051809;28;20115;-70
2022/03/15 00:02:49;;;;;;;21.02;6.80;;;3.80;99.90;;;;;;5051670;28;20049;-70
2022/03/15 00:05:18;;;;;;;10.80;5.35;;;3.80;99.90;;;;;;5048980;28;20099;-69
2022/03/15 00:07:45;;;;;;;13.35;5.90;;;3.80;99.90;;;;;;5051212;28;20060;-69
2022/03/15 00:10:12;;;;;;;13.77;6.68;;;3.70;99.90;;;;;;5049834;28;20041;-70
2022/03/15 00:12:39;;;;;;;14.48;5.95;;;3.60;99.90;;;;;;5051021;28;20037;-69
2022/03/15 00:15:08;;;;;;;20.67;6.10;;;3.60;99.90;;;;;;5051644;28;20144;-69
2022/03/15 00:17:35;;;;;;;11.10;5.53;;;3.60;99.90;;;;;;5049385;28;20041;-70
2022/03/15 00:20:02;;;;;;;12.55;6.10;;;3.60;99.90;;;;;;5049950;28;20083;-70
2022/03/15 00:22:30;;;;;;;14.45;6.63;;;3.50;99.90;;;;;;5050005;28;20433;-69
2022/03/15 00:24:55;;;;;;;11.82;5.15;;;3.50;99.90;;;;;;5048983;28;20056;-69
2022/03/15 00:27:21;;;;;;;9.18;5.03;;;3.50;99.90;;;;;;5050062;28;20144;-70
2022/03/15 00:29:46;;;;;;;10.57;5.90;;;3.50;99.90;;;;;;5051011;28;20037;-69
2022/03/15 00:32:14;;;;;;;12.57;5.72;;;3.50;99.90;;;;;;5050610;28;20548;-69
2022/03/15 00:34:39;;;;;;;11.75;5.18;;;3.50;99.90;;;;;;5051035;28;20384;-69
2022/03/15 00:37:05;;;;;;;12.70;6.10;;;3.50;99.90;;;;;;5051224;28;20049;-69
2022/03/15 00:39:31;;;;;;;12.93;5.40;;;3.50;99.90;;;;;;5048898;28;20464;-69
2022/03/15 00:41:56;;;;;;;7.97;4.28;;;3.40;99.90;;;;;;5050902;28;20045;-69
2022/03/15 00:44:22;;;;;;;7.88;3.83;;;3.40;99.90;;;;;;5049927;28;20392;-69
2022/03/15 00:46:47;;;;;;;7.65;4.63;;;3.30;99.90;;;;;;5048826;28;20044;-69
2022/03/15 00:49:13;;;;;;;3.80;3.33;;;3.30;99.90;;;;;;5051177;28;20041;-69
2022/03/15 00:51:39;;;;;;;4.47;2.90;;;3.20;99.90;;;;;;5049189;28;20411;-69
2022/03/15 00:54:04;;;;;;;4.30;3.10;;;3.20;99.90;;;;;;5048938;28;20137;-69
2022/03/15 00:56:30;;;;;;;6.88;3.03;;;3.20;99.90;;;;;;5050647;28;20048;-69
2022/03/15 00:58:55;;;;;;;5.93;3.22;;;3.10;99.90;;;;;;5050753;28;20073;-69
2022/03/15 01:01:21;;;;;;;10.90;4.07;;;3.10;99.90;;;;;;5050106;28;20045;-69
2022/03/15 01:03:46;;;;;;;5.35;3.78;;;3.10;99.90;;;;;;5050509;28;20059;-69
2022/03/15 01:06:12;;;;;;;6.60;3.60;;;3.10;99.90;;;;;;5049501;28;20068;-69
2022/03/15 01:08:37;;;;;;;7.57;3.58;;;3.10;99.90;;;;;;5048209;28;20045;-69
2022/03/15 01:11:05;;;;;;;4.68;3.80;;;3.10;99.90;;;;;;5050547;28;20051;-70
2022/03/15 01:13:30;;;;;;;4.75;3.20;;;3.10;99.90;;;;;;5048965;28;20127;-69
2022/03/15 01:15:56;;;;;;;3.95;3.28;;;3.00;99.90;;;;;;5049024;28;20131;-69
2022/03/15 01:18:21;;;;;;;6.47;3.05;;;3.00;99.90;;;;;;5051938;28;20041;-70
2022/03/15 01:20:48;;;;;;;4.20;3.42;;;3.00;99.90;;;;;;5053784;28;20094;-69
2022/03/15 01:23:13;;;;;;;4.90;3.58;;;3.00;99.90;;;;;;5054791;28;20049;-69
2022/03/15 01:25:39;;;;;;;5.00;3.50;;;3.50;99.90;;;;;;5046788;28;20057;-69
2022/03/15 01:28:05;;;;;;;9.23;3.67;;;2.90;99.90;;;;;;5044967;28;20079;-69
2022/03/15 01:30:31;;;;;;;6.95;3.63;;;2.80;99.90;;;;;;5047739;28;20459;-69
2022/03/15 01:32:57;;;;;;;13.80;4.63;;;2.90;99.90;;;;;;5051068;28;20052;-69
2022/03/15 01:35:23;;;;;;;11.18;4.10;;;2.80;99.90;;;;;;5044010;28;20040;-69
2022/03/15 01:37:48;;;;;;;7.88;4.50;;;2.80;99.90;;;;;;5048710;28;20053;-69
2022/03/15 01:40:14;;;;;;;9.18;5.15;;;2.80;99.90;;;;;;5044790;28;20041;-70
2022/03/15 01:42:40;;;;;;;8.70;5.15;;;2.80;99.90;;;;;;5050321;28;20475;-70
2022/03/15 01:45:06;;;;;;;15.45;6.20;;;2.80;99.90;;;;;;5034323;28;20609;-69
2022/03/15 01:47:32;;;;;;;6.93;5.13;;;2.70;99.90;;;;;;5034167;28;20041;-69
2022/03/15 01:49:58;;;;;;;8.30;4.75;;;2.80;99.90;;;;;;5033662;28;20041;-69
2022/03/15 01:52:24;;;;;;;13.43;5.70;;;2.80;99.90;;;;;;5034079;28;20053;-69
2022/03/15 01:54:50;;;;;;;8.43;4.70;;;2.80;99.90;;;;;;5034135;28;20067;-69
2022/03/15 01:57:16;;;;;;;14.13;5.30;;;2.80;99.90;;;;;;5032248;28;20073;-69
2022/03/15 01:59:42;;;;;;;7.38;5.00;;;2.80;99.90;;;;;;5032333;28;20126;-69
2022/03/15 02:02:08;;;;;;;9.75;5.70;;;2.80;99.90;;;;;;5032971;28;20456;-70
2022/03/15 02:04:36;;;;;;;15.38;5.15;;;2.70;99.90;;;;;;5033235;28;20132;-70
2022/03/15 02:07:11;;;;;;;13.82;4.93;;;2.70;99.90;;;;;;5032734;28;20045;-69
2022/03/15 02:09:37;;;;;;;9.48;5.05;;;2.70;99.90;;;;;;5033624;28;20106;-69
2022/03/15 02:12:03;;;;;;;6.72;4.60;;;2.70;99.90;;;;;;5033057;28;20468;-69
2022/03/15 02:14:29;;;;;;;9.98;5.63;;;2.70;99.90;;;;;;5033471;28;20083;-70
2022/03/15 02:16:55;;;;;;;11.40;6.38;;;2.80;99.90;;;;;;5031722;28;20080;-69
2022/03/15 02:19:22;;;;;;;9.82;5.63;;;2.80;99.90;;;;;;5032634;28;20139;-69
2022/03/15 02:21:48;;;;;;;8.60;6.05;;;2.90;99.90;;;;;;5034321;28;20080;-69
2022/03/15 02:24:14;;;;;;;12.55;5.88;;;2.90;99.90;;;;;;5046298;28;20149;-69
2022/03/15 02:26:40;;;;;;;14.85;7.82;;;3.00;99.90;;;;;;5031953;28;20454;-69
2022/03/15 02:29:06;;;;;;;9.55;6.43;;;3.00;99.90;;;;;;5032049;28;20050;-69
2022/03/15 02:31:31;;;;;;;14.60;7.22;;;3.10;99.90;;;;;;5047619;28;20099;-70
2022/03/15 02:33:57;;;;;;;15.45;7.55;;;3.20;99.90;;;;;;5053433;28;20113;-70
2022/03/15 02:36:22;;;;;;;11.32;6.47;;;3.20;99.90;;;;;;5052344;28;20103;-70
2022/03/15 02:38:48;;;;;;;20.10;8.27;;;3.30;99.90;;;;;;5051477;28;20040;-70
2022/03/15 02:41:14;;;;;;;10.15;6.50;;;3.30;99.90;;;;;;5053305;28;20123;-70
2022/03/15 02:43:41;;;;;;;14.02;7.53;;;3.40;99.90;;;;;;5051591;28;20472;-70
2022/03/15 02:46:07;;;;;;;18.42;8.07;;;3.40;99.90;;;;;;5052286;28;20487;-70
2022/03/15 02:48:34;;;;;;;16.33;7.20;;;3.50;99.90;;;;;;5051800;28;20132;-70
2022/03/15 02:51:04;;;;;;;13.65;7.70;;;3.50;99.90;;;;;;5053106;28;20045;-70
2022/03/15 02:53:30;;;;;;;19.55;8.38;;;3.60;99.90;;;;;;5052142;28;20056;-70
2022/03/15 02:55:55;;;;;;;17.05;8.93;;;3.60;99.90;;;;;;5051465;28;20049;-70
2022/03/15 02:58:21;;;;;;;14.70;8.07;;;3.60;99.90;;;;;;5042726;28;20057;-70
2022/03/15 03:00:47;;;;;;;14.45;8.77;;;3.70;99.90;;;;;;5043027;28;20048;-70
2022/03/15 03:03:13;;;;;;;17.23;8.75;;;3.80;99.90;;;;;;5033702;28;20502;-70
2022/03/15 03:05:39;;;;;;;18.58;9.75;;;3.80;99.90;;;;;;5032573;28;20042;-70
2022/03/15 03:08:05;;;;;;;25.33;9.18;;;3.80;99.90;;;;;;5032444;28;20041;-70
2022/03/15 03:10:34;;;;;;;18.40;8.90;;;3.90;99.90;;;;;;5031116;28;20045;-70
2022/03/15 03:13:00;;;;;;;15.75;8.73;;;3.90;99.90;;;;;;5033023;28;20400;-70
2022/03/15 03:15:26;;;;;;;14.65;8.77;;;3.90;99.90;;;;;;5031948;28;20045;-70
2022/03/15 03:17:52;;;;;;;13.20;8.82;;;4.00;99.90;;;;;;5032546;28;20049;-70
2022/03/15 03:20:21;;;;;;;19.63;9.32;;;4.00;99.90;;;;;;5030567;28;20056;-70
2022/03/15 03:22:50;;;;;;;16.55;9.48;;;4.00;99.90;;;;;;5032205;28;20045;-70
2022/03/15 03:25:16;;;;;;;14.88;9.63;;;4.00;99.90;;;;;;5031196;28;20057;-70
2022/03/15 03:27:42;;;;;;;21.27;9.30;;;4.00;99.90;;;;;;5031480;28;20045;-70
2022/03/15 03:30:09;;;;;;;17.70;9.90;;;4.00;99.90;;;;;;5032604;28;20045;-70
2022/03/15 03:32:34;;;;;;;18.60;9.63;;;4.10;99.90;;;;;;5030553;28;20480;-70
2022/03/15 03:35:04;;;;;;;20.17;8.93;;;4.00;99.90;;;;;;5039474;28;20123;-70
2022/03/15 03:37:31;;;;;;;14.35;8.75;;;4.10;99.90;;;;;;5033591;28;20455;-70
2022/03/15 03:39:56;;;;;;;18.60;9.50;;;4.00;99.90;;;;;;5041803;28;20045;-69
2022/03/15 03:42:22;;;;;;;21.23;8.65;;;4.10;99.90;;;;;;5051565;28;20471;-70
2022/03/15 03:44:48;;;;;;;16.55;8.85;;;4.10;99.90;;;;;;5039898;28;20129;-70
2022/03/15 03:47:13;;;;;;;14.82;8.07;;;4.10;99.90;;;;;;5032132;28;20136;-70
2022/03/15 03:49:40;;;;;;;18.98;8.85;;;4.10;99.90;;;;;;5031014;28;20049;-70
2022/03/15 03:52:06;;;;;;;17.80;9.10;;;4.20;99.90;;;;;;5032023;28;20125;-70
2022/03/15 03:54:32;;;;;;;17.63;9.65;;;4.20;99.90;;;;;;5031636;28;20037;-70
2022/03/15 03:56:58;;;;;;;14.80;8.98;;;4.20;99.90;;;;;;5031338;28;20423;-70
2022/03/15 03:59:24;;;;;;;18.02;10.23;;;4.20;99.90;;;;;;5030288;28;20048;-71
2022/03/15 04:01:50;;;;;;;15.05;9.18;;;4.20;99.90;;;;;;5030707;28;20576;-70
2022/03/15 04:04:16;;;;;;;17.35;9.57;;;4.20;99.90;;;;;;5030028;28;20049;-70
2022/03/15 04:06:42;;;;;;;16.50;9.52;;;4.30;99.90;;;;;;5031282;28;20045;-70
2022/03/15 04:09:10;;;;;;;17.50;10.07;;;4.30;99.90;;;;;;5031645;28;20041;-70
2022/03/15 04:11:36;;;;;;;20.67;10.75;;;4.30;99.90;;;;;;5038265;28;20077;-70
2022/03/15 04:14:03;;;;;;;21.20;10.43;;;4.30;99.90;;;;;;5051725;28;20094;-70
2022/03/15 04:16:30;;;;;;;20.48;10.60;;;4.40;99.90;;;;;;5037684;28;20060;-70
2022/03/15 04:18:56;;;;;;;20.77;9.25;;;4.40;99.90;;;;;;5030376;28;20041;-70
2022/03/15 04:21:24;;;;;;;17.58;9.35;;;4.40;99.90;;;;;;5031528;28;20490;-70
2022/03/15 04:23:54;;;;;;;22.52;9.85;;;4.40;99.90;;;;;;5044105;28;20064;-70
2022/03/15 04:26:24;;;;;;;25.23;9.27;;;4.40;99.90;;;;;;5049984;28;20056;-70
2022/03/15 04:28:54;;;;;;;18.33;10.50;;;4.50;99.90;;;;;;5051232;28;20056;-70
2022/03/15 04:31:22;;;;;;;18.67;8.88;;;4.50;99.90;;;;;;5050628;28;20055;-70
2022/03/15 04:33:47;;;;;;;25.08;10.25;;;4.50;99.90;;;;;;5049878;28;20053;-70
2022/03/15 04:36:13;;;;;;;18.42;10.55;;;4.50;99.90;;;;;;5051039;28;20657;-70
2022/03/15 04:38:39;;;;;;;25.73;11.10;;;4.50;99.90;;;;;;5050236;28;20088;-70
2022/03/15 04:41:05;;;;;;;18.52;10.77;;;4.50;99.90;;;;;;5049982;28;20073;-70
2022/03/15 04:43:32;;;;;;;23.65;11.10;;;4.50;99.90;;;;;;5049423;28;20064;-70
2022/03/15 04:45:58;;;;;;;16.92;10.40;;;4.60;99.90;;;;;;5047654;28;20041;-70
2022/03/15 04:48:23;;;;;;;23.58;10.73;;;4.60;99.90;;;;;;5043541;28;20358;-70
2022/03/15 04:50:50;;;;;;;23.52;10.82;;;4.60;99.90;;;;;;5039555;28;20041;-70
2022/03/15 04:53:16;;;;;;;22.02;11.60;;;4.60;99.90;;;;;;5030447;28;20033;-70
2022/03/15 04:55:42;;;;;;;17.35;11.65;;;4.60;99.90;;;;;;5032093;28;20095;-70
2022/03/15 04:58:08;;;;;;;20.70;11.15;;;4.70;99.90;;;;;;5050951;28;20041;-70
2022/03/15 05:00:34;;;;;;;17.60;11.52;;;4.70;99.90;;;;;;5049804;28;20402;-70
2022/03/15 05:02:59;;;;;;;20.35;12.55;;;4.70;99.90;;;;;;5049394;28;20057;-70
2022/03/15 05:05:25;;;;;;;28.88;12.60;;;4.70;99.90;;;;;;5049089;28;20041;-70
2022/03/15 05:07:51;;;;;;;21.80;11.82;;;4.70;99.90;;;;;;5047424;28;20045;-69
2022/03/15 05:13:03;;;;;;;21.95;13.20;;;4.70;99.90;;;;;;5039320;28;20073;-70
2022/03/15 05:15:29;;;;;;;20.67;12.90;;;4.80;99.90;;;;;;5050419;28;20052;-70
2022/03/15 05:17:55;;;;;;;25.25;12.60;;;4.80;99.90;;;;;;5033548;28;20505;-70
2022/03/15 05:20:20;;;;;;;25.25;13.07;;;4.80;99.90;;;;;;5046092;28;20061;-70
2022/03/15 05:22:46;;;;;;;20.73;13.43;;;4.80;99.90;;;;;;5030375;28;20404;-70
2022/03/15 05:25:13;;;;;;;28.20;14.88;;;4.80;99.90;;;;;;5044772;28;20052;-70
2022/03/15 05:27:40;;;;;;;23.27;12.65;;;4.80;99.90;;;;;;5046279;28;20091;-70
2022/03/15 05:30:07;;;;;;;26.92;13.30;;;4.80;99.90;;;;;;5050474;28;20091;-70
2022/03/15 05:32:32;;;;;;;19.15;12.77;;;4.80;99.90;;;;;;5043359;28;20042;-70
2022/03/15 05:34:58;;;;;;;27.50;13.13;;;4.80;99.90;;;;;;5031263;28;20048;-70
2022/03/15 05:37:24;;;;;;;21.95;13.35;;;4.80;99.90;;;;;;5037122;28;20075;-70
2022/03/15 05:39:49;;;;;;;29.42;13.65;;;4.80;99.90;;;;;;5038705;28;20069;-70
2022/03/15 05:42:18;;;;;;;26.40;14.07;;;4.80;99.90;;;;;;5029733;28;20085;-70
2022/03/15 05:44:43;;;;;;;22.55;13.25;;;4.80;99.90;;;;;;5030020;28;20053;-70
2022/03/15 05:47:09;;;;;;;24.33;14.20;;;4.70;99.90;;;;;;5048350;28;20045;-70
2022/03/15 05:49:34;;;;;;;24.27;13.82;;;4.70;99.90;;;;;;5048009;28;20095;-71
2022/03/15 05:52:00;;;;;;;23.88;14.02;;;4.80;99.90;;;;;;5050300;28;20068;-70
2022/03/15 05:54:26;;;;;;;26.33;13.05;;;4.80;99.90;;;;;;5049903;28;20511;-70
2022/03/15 05:56:52;;;;;;;21.25;12.75;;;4.80;99.90;;;;;;5049290;28;20052;-70
2022/03/15 05:59:17;;;;;;;33.55;14.38;;;4.80;99.90;;;;;;5050228;28;20422;-70
2022/03/15 06:01:43;;;;;;;21.58;13.90;;;4.80;99.90;;;;;;5050042;28;20494;-70
2022/03/15 06:04:10;;;;;;;26.35;15.35;;;4.80;99.90;;;;;;5051756;28;20049;-70
2022/03/15 06:06:36;;;;;;;24.25;12.75;;;4.80;99.90;;;;;;5051430;28;20741;-70
2022/03/15 06:09:02;;;;;;;29.45;14.77;;;4.80;99.90;;;;;;5036871;28;20048;-70
2022/03/15 06:11:28;;;;;;;25.73;14.88;;;4.80;99.90;;;;;;5036741;28;20037;-70
2022/03/15 06:13:54;;;;;;;34.08;16.73;;;4.80;99.90;;;;;;5032703;28;20563;-70
2022/03/15 06:16:20;;;;;;;22.02;14.77;;;4.90;99.90;;;;;;5033536;28;20049;-70
2022/03/15 06:18:45;;;;;;;25.20;14.43;;;4.90;99.90;;;;;;5032151;28;20041;-70
2022/03/15 06:21:11;;;;;;;32.25;15.40;;;4.90;99.90;;;;;;5033950;28;20056;-70
2022/03/15 06:23:37;;;;;;;21.65;13.45;;;4.90;99.90;;;;;;5031069;28;20455;-70
2022/03/15 06:26:02;;;;;;;26.00;14.77;;;4.90;99.90;;;;;;5033773;28;20044;-70
2022/03/15 06:28:28;;;;;;;24.08;14.20;;;4.90;99.90;;;;;;5032128;28;20407;-70
2022/03/15 06:30:57;;;;;;;20.20;13.07;;;5.00;99.90;;;;;;5032692;28;20041;-70
2022/03/15 06:33:23;;;;;;;27.92;15.20;;;5.00;99.90;;;;;;5033413;28;20574;-70
2022/03/15 06:35:48;;;;;;;30.88;15.07;;;5.00;99.90;;;;;;5044193;28;20111;-70
2022/03/15 06:38:14;;;;;;;31.58;15.27;;;5.00;99.90;;;;;;5043416;28;20049;-70
2022/03/15 06:40:41;;;;;;;24.45;14.88;;;5.00;99.90;;;;;;5032941;28;20033;-70
2022/03/15 06:43:06;;;;;;;29.95;15.32;;;5.00;99.90;;;;;;5039645;28;20059;-70
2022/03/15 06:45:32;;;;;;;23.55;14.90;;;5.10;99.90;;;;;;5049112;28;20038;-70
2022/03/15 06:47:58;;;;;;;25.13;14.30;;;5.10;99.90;;;;;;5039458;28;20067;-68
2022/03/15 06:50:24;;;;;;;25.90;13.57;;;5.10;99.90;;;;;;5036903;28;20045;-70
2022/03/15 06:52:49;;;;;;;32.25;16.30;;;5.10;99.90;;;;;;5035744;28;20140;-69
2022/03/15 06:55:16;;;;;;;25.95;15.65;;;5.10;99.90;;;;;;5041918;28;20037;-69
2022/03/15 06:57:42;;;;;;;26.08;15.40;;;5.20;99.90;;;;;;5052552;28;20048;-69
2022/03/15 07:00:10;;;;;;;26.63;15.40;;;5.20;99.90;;;;;;5050878;28;20040;-69
2022/03/15 07:02:36;;;;;;;26.58;16.05;;;5.20;99.90;;;;;;5052447;28;20041;-70
2022/03/15 07:05:02;;;;;;;29.08;15.18;;;5.20;99.90;;;;;;5052947;28;20037;-70
2022/03/15 07:07:27;;;;;;;28.30;15.43;;;5.80;99.90;;;;;;5051660;28;20115;-70
2022/03/15 07:09:54;;;;;;;27.85;16.35;;;5.30;99.90;;;;;;5051435;28;20045;-69
2022/03/15 07:12:20;;;;;;;21.92;14.50;;;5.30;99.90;;;;;;5051853;28;20487;-69
2022/03/15 07:14:47;;;;;;;29.40;15.02;;;5.30;99.90;;;;;;5050821;28;20055;-72
2022/03/15 07:17:12;;;;;;;26.08;15.60;;;5.40;99.90;;;;;;5041984;28;20504;-70
2022/03/15 07:19:38;;;;;;;25.80;15.68;;;5.40;99.90;;;;;;5043109;28;20043;-71
2022/03/15 07:22:06;;;;;;;27.67;16.42;;;5.50;99.90;;;;;;5047030;28;20727;-71
2022/03/15 07:24:32;;;;;;;26.45;16.23;;;5.50;99.90;;;;;;5038579;28;20053;-71
2022/03/15 07:26:59;;;;;;;26.40;15.40;;;5.50;99.90;;;;;;5032449;28;20107;-70
2022/03/15 07:29:24;;;;;;;29.05;16.30;;;5.50;99.90;;;;;;5031794;28;20045;-71
2022/03/15 07:31:50;;;;;;;29.63;15.65;;;5.60;99.90;;;;;;5030560;28;20132;-71
2022/03/15 07:34:16;;;;;;;31.50;15.15;;;5.60;99.90;;;;;;5031787;28;20053;-71
2022/03/15 07:36:41;;;;;;;27.30;16.67;;;5.60;99.90;;;;;;5045705;28;20048;-71
2022/03/15 07:39:07;;;;;;;24.85;15.82;;;5.60;99.90;;;;;;5047578;28;20045;-71
2022/03/15 07:41:38;;;;;;;26.48;17.40;;;5.60;99.90;;;;;;5046144;28;20053;-71
2022/03/15 07:44:07;;;;;;;28.42;16.73;;;5.60;99.90;;;;;;5032043;28;20050;-70
2022/03/15 07:46:34;;;;;;;29.75;16.90;;;5.60;99.90;;;;;;5031257;28;20049;-71
2022/03/15 07:49:00;;;;;;;30.25;16.27;;;5.60;99.90;;;;;;5031062;28;20424;-71
2022/03/15 07:51:25;;;;;;;35.78;17.80;;;5.60;99.90;;;;;;5038090;28;20076;-71
2022/03/15 07:53:51;;;;;;;30.50;17.45;;;5.70;99.90;;;;;;5042353;28;20060;-71
2022/03/15 07:56:17;;;;;;;28.55;18.05;;;5.80;99.90;;;;;;5048011;28;20072;-71
2022/03/15 07:58:43;;;;;;;34.65;19.08;;;5.80;99.90;;;;;;5041566;28;20470;-70
2022/03/15 08:01:08;;;;;;;49.88;20.90;;;5.80;99.90;;;;;;5032202;28;20107;-71
2022/03/15 08:03:34;;;;;;;52.88;21.92;;;5.80;99.90;;;;;;5029040;28;20052;-70
2022/03/15 08:06:00;;;;;;;48.05;20.90;;;5.90;99.90;;;;;;5034221;28;20403;-70
2022/03/15 08:08:26;;;;;;;39.78;21.35;;;6.00;99.90;;;;;;5033538;28;20084;-70
2022/03/15 08:10:51;;;;;;;36.72;19.10;;;6.10;99.90;;;;;;5047121;28;20080;-70
2022/03/15 08:13:17;;;;;;;42.75;20.80;;;6.10;99.90;;;;;;5034534;28;20041;-70
2022/03/15 08:15:43;;;;;;;33.20;20.33;;;6.20;99.90;;;;;;5041449;28;20080;-71
2022/03/15 08:18:09;;;;;;;39.10;20.75;;;6.20;99.90;;;;;;5031719;28;20710;-71
2022/03/15 08:20:39;;;;;;;41.38;21.35;;;6.40;99.90;;;;;;5043054;28;20049;-73
2022/03/15 08:23:06;;;;;;;38.08;20.33;;;6.40;99.90;;;;;;5032277;28;20075;-74
2022/03/15 08:25:32;;;;;;;37.65;21.35;;;6.40;99.90;;;;;;5033658;28;20539;-71
2022/03/15 08:27:58;;;;;;;34.05;21.65;;;6.50;99.90;;;;;;5031989;28;20037;-79
2022/03/15 08:30:24;;;;;;;37.30;21.92;;;6.50;99.90;;;;;;5049168;28;20549;-79
2022/03/15 08:32:49;;;;;;;37.80;20.77;;;6.50;99.90;;;;;;5040327;28;20099;-78
2022/03/15 08:35:15;;;;;;;44.35;24.35;;;6.60;99.90;;;;;;5031331;28;20099;-76
2022/03/15 08:37:42;;;;;;;41.42;22.33;;;6.60;99.90;;;;;;5030159;28;20049;-77
2022/03/15 08:40:09;;;;;;;40.40;22.15;;;6.70;99.90;;;;;;5031371;28;20124;-76
2022/03/15 08:42:35;;;;;;;38.55;21.08;;;6.80;99.90;;;;;;5046665;28;20045;-76
2022/03/15 08:45:01;;;;;;;43.00;23.25;;;6.80;99.90;;;;;;5039239;28;20083;-76
2022/03/15 08:47:28;;;;;;;36.63;23.05;;;6.90;99.90;;;;;;5035886;28;20045;-77
2022/03/15 08:49:55;;;;;;;42.75;22.58;;;7.00;99.90;;;;;;5032722;28;20053;-76
2022/03/15 08:52:21;;;;;;;45.83;24.30;;;7.10;99.90;;;;;;5036082;28;20106;-76
2022/03/15 08:54:46;;;;;;;36.97;23.38;;;7.10;99.90;;;;;;5029038;28;20049;-74
2022/03/15 08:57:12;;;;;;;43.17;23.38;;;7.20;99.90;;;;;;5038820;28;20048;-70
2022/03/15 08:59:37;;;;;;;42.95;23.70;;;7.20;99.90;;;;;;5031445;28;20060;-69
2022/03/15 09:02:03;;;;;;;37.13;22.70;;;7.30;99.90;;;;;;5035473;28;21464;-69
2022/03/15 09:04:29;;;;;;;43.22;23.33;;;7.40;99.90;;;;;;5048791;28;20518;-70
2022/03/15 09:06:54;;;;;;;36.65;22.27;;;7.40;99.90;;;;;;5048040;28;20095;-69
2022/03/15 09:09:24;;;;;;;39.90;22.92;;;7.50;99.90;;;;;;5047818;28;20129;-70
2022/03/15 09:11:50;;;;;;;39.10;22.10;;;7.50;99.90;;;;;;5047948;28;20053;-70
2022/03/15 09:14:15;;;;;;;30.52;19.90;;;7.60;99.90;;;;;;5049042;28;20044;-69
2022/03/15 09:16:41;;;;;;;34.30;23.17;;;7.60;99.90;;;;;;5050258;28;20053;-71
2022/03/15 09:19:08;;;;;;;35.95;23.17;;;7.70;99.90;;;;;;5049951;28;20896;-72
2022/03/15 09:21:34;;;;;;;33.90;21.67;;;7.80;99.90;;;;;;5050199;28;20049;-71
2022/03/15 09:23:59;;;;;;;31.08;20.95;;;7.80;99.90;;;;;;5043843;28;20053;-71
2022/03/15 09:26:25;;;;;;;37.28;22.40;;;7.90;99.90;;;;;;5034871;28;20466;-71
2022/03/15 09:28:51;;;;;;;34.75;22.90;;;8.00;99.90;;;;;;5035330;28;20064;-72
2022/03/15 09:31:18;;;;;;;40.90;22.77;;;8.00;99.90;;;;;;5040519;28;20483;-73
2022/03/15 09:33:43;;;;;;;42.08;23.80;;;8.10;99.90;;;;;;5038236;28;20085;-73
2022/03/15 09:36:11;;;;;;;38.85;21.73;;;8.20;99.90;;;;;;5029357;28;20163;-74
2022/03/15 09:38:37;;;;;;;31.67;21.85;;;8.30;99.90;;;;;;5031575;28;20057;-71
2022/03/15 09:41:04;;;;;;;35.97;20.67;;;8.30;99.90;;;;;;5035621;28;20129;-71
2022/03/15 09:43:35;;;;;;;36.80;20.63;;;8.40;99.90;;;;;;5045320;28;20110;-71
2022/03/15 09:46:03;;;;;;;32.13;21.98;;;8.50;99.90;;;;;;5052944;28;20151;-71
2022/03/15 09:48:29;;;;;;;38.97;21.65;;;8.50;99.90;;;;;;5048483;28;20054;-71
2022/03/15 09:50:55;;;;;;;31.33;19.45;;;8.50;99.90;;;;;;5032519;28;20407;-72
2022/03/15 09:53:20;;;;;;;36.30;21.27;;;8.40;99.90;;;;;;5036736;28;20068;-72
2022/03/15 09:55:47;;;;;;;29.20;20.67;;;8.50;99.90;;;;;;5040666;28;20479;-74
2022/03/15 09:58:17;;;;;;;30.92;19.88;;;8.40;99.90;;;;;;5032803;28;20091;-74
2022/03/15 10:00:42;;;;;;;34.55;20.90;;;8.50;99.90;;;;;;5033423;28;20399;-74
2022/03/15 10:03:09;;;;;;;29.85;20.27;;;8.50;99.90;;;;;;5031988;28;20045;-74
2022/03/15 10:05:35;;;;;;;37.13;22.08;;;8.40;99.90;;;;;;5032317;28;20488;-74
2022/03/15 10:08:01;;;;;;;31.85;20.70;;;8.50;99.90;;;;;;5034558;28;20100;-74
2022/03/15 10:10:28;;;;;;;29.58;20.85;;;8.60;99.90;;;;;;5034723;28;20037;-73
2022/03/15 10:12:54;;;;;;;32.15;20.83;;;8.60;99.90;;;;;;5034647;28;20047;-74
2022/03/15 10:15:24;;;;;;;27.35;18.00;;;8.70;99.90;;;;;;5034011;28;20451;-73
2022/03/15 10:17:53;;;;;;;25.50;19.42;;;8.80;99.90;;;;;;5037546;28;20386;-72
2022/03/15 10:20:21;;;;;;;28.27;20.05;;;8.80;99.90;;;;;;5053351;28;20047;-73
2022/03/15 10:23:05;;;;;;;30.02;18.80;;;9.00;99.90;;;;;;5036068;28;20492;-74
2022/03/15 10:25:32;;;;;;;28.45;18.00;;;9.10;99.90;;;;;;5044077;28;20196;-72
2022/03/15 10:28:01;;;;;;;29.65;19.70;;;9.10;99.90;;;;;;5049661;28;20406;-72
2022/03/15 10:30:28;;;;;;;28.42;18.77;;;9.10;99.90;;;;;;5036643;28;20055;-72
2022/03/15 10:32:55;;;;;;;31.02;19.55;;;9.20;99.90;;;;;;5033021;28;20507;-72
2022/03/15 10:35:22;;;;;;;30.85;18.90;;;9.20;99.90;;;;;;5034285;28;20050;-73
2022/03/15 10:37:50;;;;;;;29.75;20.05;;;9.30;99.90;;;;;;5033650;28;20041;-72
2022/03/15 10:40:17;;;;;;;28.40;18.52;;;9.30;99.90;;;;;;5049545;28;20095;-72
2022/03/15 10:42:44;;;;;;;27.55;18.85;;;9.20;99.90;;;;;;5049615;28;20045;-72
2022/03/15 10:45:22;;;;;;;25.88;17.48;;;9.20;99.90;;;;;;5037359;28;20049;-74
2022/03/15 10:47:54;;;;;;;29.20;19.52;;;9.20;99.90;;;;;;5031878;28;20160;-72
2022/03/15 10:50:21;;;;;;;30.67;18.08;;;9.20;99.90;;;;;;5038093;28;20049;-72
2022/03/15 10:52:47;;;;;;;29.63;18.38;;;9.20;99.90;;;;;;5053504;28;20380;-73
2022/03/15 10:55:19;;;;;;;27.25;18.23;;;9.20;99.90;;;;;;5052683;28;20037;-74
2022/03/15 10:57:48;;;;;;;27.80;18.75;;;9.30;99.90;;;;;;5051932;28;20052;-73
2022/03/15 11:00:16;;;;;;;26.98;18.98;;;9.30;99.90;;;;;;5051717;28;20053;-73
2022/03/15 11:02:43;;;;;;;29.00;18.25;;;9.40;99.90;;;;;;5033813;28;20418;-74
2022/03/15 11:05:09;;;;;;;23.92;17.73;;;9.40;99.90;;;;;;5031313;28;20056;-73
2022/03/15 11:07:42;;;;;;;26.55;17.40;;;9.50;99.90;;;;;;5033213;28;20396;-73
2022/03/15 11:10:09;;;;;;;26.25;17.45;;;9.60;99.90;;;;;;5033735;28;20041;-73
2022/03/15 11:12:35;;;;;;;25.20;17.90;;;9.60;99.90;;;;;;5031487;28;20053;-73
2022/03/15 11:15:01;;;;;;;26.75;18.17;;;9.70;99.90;;;;;;5032122;28;20460;-73
2022/03/15 11:17:27;;;;;;;31.90;18.33;;;9.70;99.90;;;;;;5042993;28;20045;-73
2022/03/15 11:19:53;;;;;;;27.17;18.33;;;9.70;99.90;;;;;;5050330;28;20072;-69
2022/03/15 11:22:34;;;;;;;25.60;16.38;;;9.60;99.90;;;;;;5037520;28;20098;-71
2022/03/15 11:25:07;;;;;;;24.30;17.67;;;9.60;99.90;;;;;;5040035;28;20045;-71
2022/03/15 11:27:36;;;;;;;34.25;20.10;;;9.60;99.90;;;;;;5041964;28;20053;-71
2022/03/15 11:30:05;;;;;;;30.50;19.38;;;9.60;99.90;;;;;;5038710;28;20046;-71
2022/03/15 11:32:32;;;;;;;22.25;15.45;;;9.60;99.90;;;;;;5040646;28;20580;-71
2022/03/15 11:34:59;;;;;;;24.38;16.60;;;9.60;99.90;;;;;;5038521;28;20076;-71
2022/03/15 11:37:25;;;;;;;25.88;13.63;;;9.60;99.90;;;;;;5046003;28;20057;-71
2022/03/15 11:39:52;;;;;;;21.15;13.50;;;9.60;99.90;;;;;;5045490;28;20040;-72
2022/03/15 11:42:18;;;;;;;26.48;12.40;;;9.60;99.90;;;;;;5031161;28;20492;-73
2022/03/15 11:44:53;;;;;;;15.50;9.57;;;9.60;99.90;;;;;;5045661;28;20043;-70
2022/03/15 11:47:33;;;;;;;13.88;9.63;;;9.60;99.90;;;;;;5055476;28;20041;-70
2022/03/15 11:50:07;;;;;;;14.55;8.70;;;9.60;99.90;;;;;;5049764;28;20049;-70
2022/03/15 11:53:01;;;;;;;8.95;5.93;;;9.60;99.90;;;;;;5051655;28;20088;-70
2022/03/15 11:55:32;;;;;;;10.85;4.60;;;9.60;99.90;;;;;;5034856;28;20049;-70
2022/03/15 11:58:05;;;;;;;7.50;4.93;;;9.60;99.90;;;;;;5030814;28;20133;-71
2022/03/15 12:00:37;;;;;;;9.70;5.90;;;9.60;99.90;;;;;;5039768;28;21122;-70
2022/03/15 12:03:06;;;;;;;8.35;6.35;;;9.70;99.90;;;;;;5031219;28;20029;-70
2022/03/15 12:05:42;;;;;;;8.38;4.75;;;9.60;99.90;;;;;;5031204;28;20060;-70
2022/03/15 12:08:17;;;;;;;6.50;4.90;;;9.50;99.90;;;;;;5039576;28;20084;-70
2022/03/15 12:10:57;;;;;;;9.68;4.47;;;9.40;99.90;;;;;;5046748;28;20045;-70
2022/03/15 12:13:57;;;;;;;8.60;4.05;;;9.30;99.90;;;;;;5046608;28;20096;-70
2022/03/15 12:16:34;;;;;;;5.68;3.88;;;9.30;99.90;;;;;;5028041;28;20135;-70
2022/03/15 12:19:55;;;;;;;7.53;4.13;;;9.20;99.90;;;;;;5042377;28;20037;-71
2022/03/15 12:21:57;;;;;;;5.05;2.97;;;9.20;99.90;;;;;;5034386;28;20114;-71
2022/03/15 12:24:31;;;;;;;7.15;2.70;;;9.20;99.90;;;;;;5043818;28;20139;-70
2022/03/15 12:27:05;;;;;;;7.90;3.70;;;9.20;99.90;;;;;;5033645;28;20045;-69
2022/03/15 12:29:32;;;;;;;7.88;3.35;;;9.20;99.90;;;;;;5032810;28;20064;-69
2022/03/15 12:32:13;;;;;;;4.13;2.60;;;9.30;99.90;;;;;;5031017;28;20049;-68
2022/03/15 12:34:43;;;;;;;5.97;3.00;;;9.30;99.90;;;;;;5031214;28;20149;-68
2022/03/15 12:37:10;;;;;;;4.95;3.53;;;9.40;99.90;;;;;;5030613;28;20053;-69
2022/03/15 12:39:35;;;;;;;7.38;2.75;;;9.60;99.90;;;;;;5042629;28;20079;-69
2022/03/15 12:42:12;;;;;;;4.95;3.10;;;9.60;99.90;;;;;;5044097;28;20515;-68
2022/03/15 12:44:39;;;;;;;5.80;3.10;;;9.70;99.90;;;;;;5032817;28;20045;-69